الصفحة الرئيسية
METAR-TAF:

METAR-TAF

مطار :

مطار سير سيووساغور رامغولام الدولي

موريشيوس, موريشيوس

دائرة عرض: 20-26S, خط طول: 057-40E, ارتفاع: 55 متر

مراقبة الطقس الحالي

تاريخ ووقت الإصدار 50 دقيقة قبل الساعة 10:00UTC
ريح 11 عقدة من الشرق/الشمال الشرقي
درجة الحرارة 28°درجة مئوية
الرطوبة 70%
ضغط 1015 hPa
الرؤية 10 كم أو أكثر
غيوم مفككة على ارتفاع 1800 قدم

METAR: FIMP 251000Z 06011KT 9999 BKN018 28/22 Q1015

زمن: 14:50 (10:50 UTC)

توقعات

تاريخ ووقت الإصدار 5ساعات و 50 دقيقة قبل الساعة 05:00UTC
التوقعات صالحة من25 الساعة 06 UTC إلى 26 الساعة 12 UTC
ريح 12 عقدة من الشرق/الجنوب الشرقي تتزايد حتى 22 عقدة
الرؤية 10 كم أو أكثر
غيوم متفرقة على ارتفاع 1600 قدم
مؤقت
من 25 الساعة 10 UTC إلى 25 الساعة 18 UTC
الرؤية: 7000 متر
غيوم قليلة على ارتفاع 1000 قدم
غيوم مفككة على ارتفاع 1500 قدم
زخات من الأمطار الخفيفة

TAF: FIMP 250500Z 2506/2612 12012G22KT 9999 SCT016 TEMPO 2510/2518 7000 -SHRA FEW010 BKN015

أرصاد الطقس والتوقعات من أكثر من 4000 مطار (تقارير الطقس للمطار METAR والتنبؤ بالطقس بالمطارTAF).

المحطات المتاحة هي النقط الصفراء والحمراء على الخريطة.

حرك المؤشر فوق النقطة لمعرفة اسم المحطة.

ثم انقر لمعرفة أرصاد وتوقعات الطقس.

لتغيير الخارطة: اضغط على الأزرار الخضراء مع رمز الصليب الأسود للتكبير. على الزر الأخضر مع شرطة للتصغير، أو على الأسهم الخضراء للخرائط المجاورة.


METAR-TAF: